Time;durP1;ratioP1;P1;durP2;ratioP2;P2;SDS_P1;SDS_P2;PMS_P1;PMS_P2;Temp;Humidity;BMP_temperature;BMP_pressure;BME280_temperature;BME280_humidity;BME280_pressure;Samples;Min_cycle;Max_cycle;Signal;HPM_P1;HPM_P2
2024/03/31 00:00:49;;;;;;;39.90;27.43;;;11.70;99.90;;;;;;5057356;28;20446;-64
2024/03/31 00:03:16;;;;;;;54.70;35.60;;;11.70;99.90;;;;;;5057131;28;20482;-67
2024/03/31 00:05:41;;;;;;;38.70;27.93;;;11.70;99.90;;;;;;5055923;28;20478;-65
2024/03/31 00:08:08;;;;;;;49.03;26.50;;;11.60;99.90;;;;;;5054237;28;20483;-65
2024/03/31 00:10:34;;;;;;;41.53;26.00;;;11.60;99.90;;;;;;5054159;28;20204;-65
2024/03/31 00:13:01;;;;;;;45.73;27.83;;;11.60;99.90;;;;;;5054159;28;20466;-65
2024/03/31 00:15:26;;;;;;;41.33;26.63;;;11.50;99.90;;;;;;5053921;28;20570;-65
2024/03/31 00:17:55;;;;;;;38.87;24.37;;;11.50;99.90;;;;;;5054302;28;20450;-64
2024/03/31 00:20:22;;;;;;;32.90;22.07;;;11.50;99.90;;;;;;5053967;28;20201;-65
2024/03/31 00:22:49;;;;;;;37.33;24.80;;;11.40;99.90;;;;;;5053870;28;20810;-65
2024/03/31 00:25:16;;;;;;;32.53;23.23;;;11.40;99.90;;;;;;5054745;28;20451;-64
2024/03/31 00:27:42;;;;;;;46.63;26.43;;;11.40;99.90;;;;;;5054111;28;20439;-65
2024/03/31 00:30:09;;;;;;;39.07;21.23;;;11.40;99.90;;;;;;5058272;28;20512;-65
2024/03/31 00:32:35;;;;;;;31.57;22.00;;;11.40;99.90;;;;;;5058438;28;20568;-65
2024/03/31 00:35:03;;;;;;;32.73;22.57;;;11.40;99.90;;;;;;5059574;28;20500;-65
2024/03/31 00:37:29;;;;;;;32.77;23.70;;;11.40;99.90;;;;;;5058235;28;20280;-65
2024/03/31 00:39:56;;;;;;;42.17;28.47;;;11.30;99.90;;;;;;5058133;28;20451;-65
2024/03/31 00:42:21;;;;;;;37.07;22.37;;;11.40;99.90;;;;;;5057168;28;20714;-65
2024/03/31 00:44:48;;;;;;;34.33;21.90;;;11.30;99.90;;;;;;5057662;28;20458;-64
2024/03/31 00:47:14;;;;;;;34.07;21.00;;;11.30;99.90;;;;;;5057611;28;20212;-65
2024/03/31 00:49:41;;;;;;;34.63;24.10;;;11.30;99.90;;;;;;5057447;28;20442;-64
2024/03/31 00:52:08;;;;;;;41.73;27.17;;;11.20;99.90;;;;;;5063789;28;20230;-64
2024/03/31 00:54:42;;;;;;;37.13;30.50;;;11.20;99.90;;;;;;5064574;28;20508;-65
2024/03/31 00:57:07;;;;;;;40.93;27.30;;;11.20;99.90;;;;;;5066058;28;20466;-64
2024/03/31 00:59:34;;;;;;;37.90;26.70;;;11.10;99.90;;;;;;5065247;28;20961;-64
2024/03/31 01:02:00;;;;;;;37.30;27.73;;;11.10;99.90;;;;;;5065312;28;20234;-64
2024/03/31 01:04:27;;;;;;;45.23;27.57;;;11.00;99.90;;;;;;5065880;28;20528;-65
2024/03/31 01:06:52;;;;;;;38.00;26.50;;;11.00;99.90;;;;;;5065393;28;20195;-64
2024/03/31 01:09:21;;;;;;;39.90;28.07;;;11.00;99.90;;;;;;5064871;28;20513;-65
2024/03/31 01:11:49;;;;;;;35.60;28.80;;;11.00;99.90;;;;;;5059503;28;20230;-65
2024/03/31 01:14:17;;;;;;;44.80;35.10;;;10.90;99.90;;;;;;5057013;28;20482;-64
2024/03/31 01:16:43;;;;;;;40.07;28.63;;;10.90;99.90;;;;;;5057139;28;20477;-64
2024/03/31 01:19:10;;;;;;;35.57;27.10;;;10.90;99.90;;;;;;5058894;28;20464;-65
2024/03/31 01:21:37;;;;;;;33.33;25.03;;;10.90;99.90;;;;;;5067480;28;20202;-65
2024/03/31 01:24:06;;;;;;;32.93;26.63;;;10.80;99.90;;;;;;5068274;28;20476;-65
2024/03/31 01:26:32;;;;;;;35.87;26.50;;;10.80;99.90;;;;;;5066779;28;20815;-65
2024/03/31 01:28:59;;;;;;;39.47;27.70;;;10.80;99.90;;;;;;5064999;28;20441;-64
2024/03/31 01:31:24;;;;;;;36.47;24.70;;;10.70;99.90;;;;;;5064043;28;20208;-65
2024/03/31 01:33:51;;;;;;;32.27;27.50;;;10.70;99.90;;;;;;5066273;28;20444;-65
2024/03/31 01:36:17;;;;;;;32.77;24.13;;;10.70;99.90;;;;;;5064379;28;20472;-64
2024/03/31 01:38:44;;;;;;;36.70;25.03;;;10.60;99.90;;;;;;5062262;28;20452;-65
2024/03/31 01:41:11;;;;;;;35.17;25.17;;;10.60;99.90;;;;;;5060534;28;20200;-65
2024/03/31 01:43:39;;;;;;;37.03;24.57;;;10.50;99.90;;;;;;5060889;28;20493;-64
2024/03/31 01:46:08;;;;;;;33.20;25.87;;;10.50;99.90;;;;;;5058565;28;20451;-64
2024/03/31 01:48:34;;;;;;;33.07;24.53;;;10.50;99.90;;;;;;5059184;28;20448;-64
2024/03/31 01:51:00;;;;;;;35.43;25.00;;;10.40;99.90;;;;;;5059611;28;20449;-65
2024/03/31 01:53:27;;;;;;;35.63;27.03;;;10.40;99.90;;;;;;5061043;28;20460;-64
2024/03/31 01:55:53;;;;;;;34.60;25.00;;;10.40;99.90;;;;;;5063283;28;20475;-65
2024/03/31 01:58:21;;;;;;;34.93;24.90;;;10.40;99.90;;;;;;5058968;28;20446;-65
2024/03/31 02:00:47;;;;;;;38.17;27.63;;;10.30;99.90;;;;;;5057475;28;20461;-65
2024/03/31 02:03:13;;;;;;;35.30;26.70;;;10.30;99.90;;;;;;5056745;28;20462;-65
2024/03/31 02:05:39;;;;;;;30.13;25.97;;;10.30;99.90;;;;;;5057841;28;20210;-65
2024/03/31 02:08:06;;;;;;;36.20;28.87;;;10.30;99.90;;;;;;5057080;28;20441;-64
2024/03/31 02:10:32;;;;;;;35.87;28.60;;;10.30;99.90;;;;;;5056600;28;20215;-64
2024/03/31 02:12:59;;;;;;;31.33;26.67;;;10.30;99.90;;;;;;5056006;28;20471;-64
2024/03/31 02:15:26;;;;;;;43.77;30.40;;;10.30;99.90;;;;;;5055779;28;20296;-65
2024/03/31 02:17:53;;;;;;;36.50;27.90;;;10.30;99.90;;;;;;5055216;28;20794;-63
2024/03/31 02:20:18;;;;;;;35.42;25.85;;;10.30;99.90;;;;;;5055816;28;20449;-64
2024/03/31 02:22:45;;;;;;;37.40;28.10;;;10.30;99.90;;;;;;5055770;28;20713;-64
2024/03/31 02:25:11;;;;;;;37.33;27.10;;;10.30;99.90;;;;;;5055569;28;20214;-64
2024/03/31 02:27:38;;;;;;;35.03;26.80;;;10.30;99.90;;;;;;5055509;28;20822;-64
2024/03/31 02:30:04;;;;;;;37.80;26.83;;;10.20;99.90;;;;;;5056312;28;20563;-65
2024/03/31 02:32:32;;;;;;;33.80;27.97;;;10.20;99.90;;;;;;5054995;28;20554;-65
2024/03/31 02:34:58;;;;;;;42.27;31.07;;;10.20;99.90;;;;;;5055127;28;20449;-64
2024/03/31 02:37:25;;;;;;;36.17;28.07;;;10.20;99.90;;;;;;5054617;28;20559;-62
2024/03/31 02:39:51;;;;;;;40.50;29.50;;;10.20;99.90;;;;;;5055518;28;20205;-63
2024/03/31 02:42:18;;;;;;;37.77;27.70;;;10.10;99.90;;;;;;5055430;28;20549;-64
2024/03/31 02:44:44;;;;;;;36.10;28.00;;;10.10;99.90;;;;;;5055264;28;20205;-65
2024/03/31 02:47:11;;;;;;;32.50;27.20;;;10.10;99.90;;;;;;5056386;28;20799;-64
2024/03/31 02:49:38;;;;;;;37.00;28.27;;;10.10;99.90;;;;;;5054720;28;20205;-64
2024/03/31 02:52:05;;;;;;;35.47;28.90;;;10.00;99.90;;;;;;5053771;28;20464;-65
2024/03/31 02:54:31;;;;;;;36.70;28.17;;;10.00;99.90;;;;;;5055011;28;20822;-65
2024/03/31 02:56:58;;;;;;;40.67;28.10;;;10.00;99.90;;;;;;5055709;28;20468;-64
2024/03/31 02:59:23;;;;;;;34.83;27.63;;;9.90;99.90;;;;;;5054418;28;20221;-64
2024/03/31 03:01:50;;;;;;;36.53;28.10;;;9.90;99.90;;;;;;5055471;28;20461;-66
2024/03/31 03:04:16;;;;;;;40.63;29.27;;;9.90;99.90;;;;;;5055072;28;20212;-64
2024/03/31 03:06:44;;;;;;;38.00;28.50;;;9.80;99.90;;;;;;5054872;28;20436;-65
2024/03/31 03:09:11;;;;;;;36.20;28.37;;;9.80;99.90;;;;;;5054604;28;20210;-64
2024/03/31 03:11:37;;;;;;;35.90;28.07;;;9.80;99.90;;;;;;5054257;28;20489;-63
2024/03/31 03:14:03;;;;;;;34.07;25.07;;;9.80;99.90;;;;;;5054483;28;20894;-65
2024/03/31 03:16:30;;;;;;;38.90;27.30;;;9.70;99.90;;;;;;5054649;28;20474;-65
2024/03/31 03:18:55;;;;;;;33.27;27.70;;;9.70;99.90;;;;;;5054243;28;20203;-65
2024/03/31 03:21:22;;;;;;;35.20;27.20;;;9.70;99.90;;;;;;5054403;28;20444;-65
2024/03/31 03:23:50;;;;;;;38.50;26.52;;;9.70;99.90;;;;;;5054422;28;20201;-64
2024/03/31 03:26:16;;;;;;;34.37;26.80;;;9.70;99.90;;;;;;5054020;28;20726;-64
2024/03/31 03:28:42;;;;;;;35.53;27.27;;;9.60;99.90;;;;;;5054234;28;20440;-65
2024/03/31 03:31:09;;;;;;;28.70;25.60;;;9.60;99.90;;;;;;5054143;28;20208;-65
2024/03/31 03:33:35;;;;;;;31.23;25.90;;;9.60;99.90;;;;;;5054086;28;20236;-64
2024/03/31 03:36:05;;;;;;;35.73;25.93;;;9.60;99.90;;;;;;5053567;28;20444;-65
2024/03/31 03:38:31;;;;;;;34.50;28.63;;;9.60;99.90;;;;;;5053710;28;20238;-64
2024/03/31 03:40:59;;;;;;;35.00;28.00;;;9.50;99.90;;;;;;5053834;28;20202;-64
2024/03/31 03:43:26;;;;;;;35.40;27.27;;;9.50;99.90;;;;;;5053663;28;20550;-65
2024/03/31 03:45:51;;;;;;;32.67;26.50;;;9.50;99.90;;;;;;5053299;28;20829;-65
2024/03/31 03:48:18;;;;;;;30.73;25.70;;;9.50;99.90;;;;;;5053455;28;20201;-65
2024/03/31 03:50:45;;;;;;;35.55;28.05;;;9.50;99.90;;;;;;5053112;28;20946;-65
2024/03/31 03:53:11;;;;;;;30.77;27.17;;;9.50;99.90;;;;;;5053320;28;20233;-65
2024/03/31 03:55:38;;;;;;;30.30;27.10;;;9.40;99.90;;;;;;5053202;28;20446;-65
2024/03/31 03:58:05;;;;;;;35.10;27.15;;;9.40;99.90;;;;;;5053288;28;20222;-65
2024/03/31 04:00:32;;;;;;;34.17;28.53;;;9.40;99.90;;;;;;5053071;28;20210;-64
2024/03/31 04:02:58;;;;;;;34.53;28.77;;;9.40;99.90;;;;;;5053052;28;20895;-64
2024/03/31 04:05:25;;;;;;;37.10;28.05;;;9.40;99.90;;;;;;5053916;28;20444;-65
2024/03/31 04:07:50;;;;;;;34.65;27.80;;;9.40;99.90;;;;;;5055654;28;20198;-64
2024/03/31 04:13:29;;;;;;;33.95;29.02;;;9.50;99.90;;;;;;5098070;27;20589;-64
2024/03/31 04:15:58;;;;;;;33.20;29.23;;;9.50;99.90;;;;;;5096651;28;20228;-65
2024/03/31 04:18:25;;;;;;;33.63;28.75;;;9.50;99.90;;;;;;5092882;28;20569;-65
2024/03/31 04:20:50;;;;;;;32.83;27.50;;;9.50;99.90;;;;;;5092065;28;20209;-64
2024/03/31 04:23:17;;;;;;;33.10;27.90;;;9.60;99.90;;;;;;5091461;28;20212;-65
2024/03/31 04:25:43;;;;;;;34.50;28.00;;;9.60;99.90;;;;;;5090802;28;20566;-64
2024/03/31 04:28:10;;;;;;;34.30;28.60;;;9.60;99.90;;;;;;5091049;28;20200;-64
2024/03/31 04:30:40;;;;;;;34.30;29.70;;;9.60;99.90;;;;;;5093138;28;20445;-64
2024/03/31 04:33:07;;;;;;;39.77;31.80;;;9.60;99.90;;;;;;5090860;28;20477;-65
2024/03/31 04:35:35;;;;;;;34.87;29.87;;;9.60;99.90;;;;;;5090531;28;20445;-64
2024/03/31 04:38:02;;;;;;;33.40;28.63;;;9.60;99.90;;;;;;5090425;28;20814;-64
2024/03/31 04:40:27;;;;;;;32.97;27.63;;;9.60;99.90;;;;;;5090649;28;20447;-65
2024/03/31 04:42:54;;;;;;;33.83;28.97;;;9.70;99.90;;;;;;5090051;28;20451;-64
2024/03/31 04:45:20;;;;;;;32.97;28.27;;;9.70;99.90;;;;;;5090552;28;20208;-63
2024/03/31 04:47:48;;;;;;;38.70;30.80;;;9.60;99.90;;;;;;5090828;28;20441;-64
2024/03/31 04:50:14;;;;;;;33.10;27.77;;;9.70;99.90;;;;;;5091440;28;20701;-65
2024/03/31 04:52:41;;;;;;;30.23;27.03;;;9.60;99.90;;;;;;5090747;28;20480;-64
2024/03/31 04:55:06;;;;;;;34.30;27.87;;;9.60;99.90;;;;;;5090582;28;20445;-65
2024/03/31 04:57:33;;;;;;;37.77;30.90;;;9.60;99.90;;;;;;5090721;28;20446;-65
2024/03/31 04:59:59;;;;;;;38.33;29.30;;;9.60;99.90;;;;;;5090542;28;20200;-64
2024/03/31 05:02:26;;;;;;;33.63;29.43;;;9.60;99.90;;;;;;5090648;28;20458;-65
2024/03/31 05:04:53;;;;;;;35.60;30.50;;;9.60;99.90;;;;;;5090998;28;20203;-64
2024/03/31 05:07:20;;;;;;;34.65;29.17;;;9.60;99.90;;;;;;5090545;28;20202;-64
2024/03/31 05:09:45;;;;;;;35.80;31.73;;;9.60;99.90;;;;;;5091518;28;20204;-64
2024/03/31 05:12:12;;;;;;;36.00;30.10;;;9.50;99.90;;;;;;5090137;28;20305;-63
2024/03/31 05:14:38;;;;;;;36.00;30.70;;;9.50;99.90;;;;;;5090756;28;20445;-65
2024/03/31 05:17:07;;;;;;;37.97;32.97;;;9.50;99.90;;;;;;5091008;28;20431;-64
2024/03/31 05:19:33;;;;;;;39.70;33.07;;;9.50;99.90;;;;;;5091384;28;20299;-66
2024/03/31 05:22:01;;;;;;;38.70;32.40;;;9.50;99.90;;;;;;5093683;28;20488;-65
2024/03/31 05:24:27;;;;;;;36.33;31.50;;;9.50;99.90;;;;;;5083539;28;20214;-64
2024/03/31 05:26:53;;;;;;;39.73;33.00;;;9.50;99.90;;;;;;5078714;28;20812;-64
2024/03/31 05:29:19;;;;;;;41.40;33.70;;;9.50;99.90;;;;;;5077218;28;20227;-65
2024/03/31 05:31:46;;;;;;;39.42;32.55;;;9.50;99.90;;;;;;5077158;28;20540;-64
2024/03/31 05:34:12;;;;;;;41.80;34.57;;;9.50;99.90;;;;;;5077654;28;20203;-64
2024/03/31 05:36:39;;;;;;;39.83;33.70;;;9.50;99.90;;;;;;5077628;28;20441;-64
2024/03/31 05:39:06;;;;;;;39.93;34.90;;;9.50;99.90;;;;;;5076753;28;20672;-64
2024/03/31 05:41:33;;;;;;;41.37;34.53;;;9.50;99.90;;;;;;5077033;28;20445;-64
2024/03/31 05:43:59;;;;;;;39.42;34.78;;;9.50;99.90;;;;;;5079163;28;20462;-64
2024/03/31 05:46:27;;;;;;;41.70;36.90;;;9.50;99.90;;;;;;5086865;28;20199;-64
2024/03/31 05:48:53;;;;;;;40.47;35.73;;;9.50;99.90;;;;;;5079388;28;20201;-65
2024/03/31 05:51:20;;;;;;;43.07;36.50;;;9.50;99.90;;;;;;5076940;28;20452;-64
2024/03/31 05:53:46;;;;;;;42.10;36.00;;;9.50;99.90;;;;;;5075997;28;20206;-65
2024/03/31 05:56:14;;;;;;;43.47;38.77;;;9.50;99.90;;;;;;5076498;28;20440;-65
2024/03/31 05:58:40;;;;;;;47.90;39.07;;;9.50;99.90;;;;;;5076635;28;20207;-64
2024/03/31 06:01:06;;;;;;;43.10;38.40;;;9.50;99.90;;;;;;5076754;28;20525;-65
2024/03/31 06:03:32;;;;;;;52.03;44.10;;;9.50;99.90;;;;;;5077083;28;20234;-64
2024/03/31 06:05:59;;;;;;;47.60;41.67;;;9.50;99.90;;;;;;5077591;28;20445;-64
2024/03/31 06:08:26;;;;;;;46.60;39.97;;;9.50;99.90;;;;;;5078108;28;20231;-64
2024/03/31 06:10:52;;;;;;;51.50;41.97;;;9.60;99.90;;;;;;5076316;28;20950;-64
2024/03/31 06:13:20;;;;;;;45.03;40.20;;;9.60;99.90;;;;;;5076416;28;20493;-65
2024/03/31 06:15:46;;;;;;;44.07;39.37;;;9.60;99.90;;;;;;5077455;28;20494;-64
2024/03/31 06:18:12;;;;;;;47.80;38.47;;;9.60;99.90;;;;;;5077989;28;20449;-65
2024/03/31 06:20:39;;;;;;;48.53;43.40;;;9.60;99.90;;;;;;5078087;28;20449;-63
2024/03/31 06:23:04;;;;;;;45.13;39.07;;;9.70;99.90;;;;;;5075847;28;20696;-64
2024/03/31 06:25:31;;;;;;;47.23;41.43;;;9.70;99.90;;;;;;5077062;28;20452;-63
2024/03/31 06:27:57;;;;;;;47.83;41.67;;;9.70;99.90;;;;;;5077617;28;20244;-65
2024/03/31 06:30:25;;;;;;;49.37;43.03;;;9.70;99.90;;;;;;5077544;28;20442;-65
2024/03/31 06:32:51;;;;;;;48.90;42.50;;;9.70;99.90;;;;;;5076150;28;20222;-64
2024/03/31 06:35:18;;;;;;;49.13;43.50;;;9.70;99.90;;;;;;5074756;28;20475;-64
2024/03/31 06:37:43;;;;;;;54.07;44.90;;;9.60;99.90;;;;;;5075748;28;20208;-64
2024/03/31 06:40:10;;;;;;;49.50;44.17;;;9.60;99.90;;;;;;5076658;28;20441;-65
2024/03/31 06:42:36;;;;;;;48.23;43.03;;;9.60;99.90;;;;;;5076464;28;20557;-64
2024/03/31 06:45:03;;;;;;;52.17;45.70;;;9.60;99.90;;;;;;5079964;28;20447;-64
2024/03/31 06:47:30;;;;;;;52.70;47.00;;;9.60;99.90;;;;;;5079797;28;20207;-65
2024/03/31 06:49:57;;;;;;;52.90;47.17;;;9.60;99.90;;;;;;5078846;28;21002;-65
2024/03/31 06:52:23;;;;;;;51.23;44.83;;;9.60;99.90;;;;;;5076667;28;20481;-65
2024/03/31 06:54:50;;;;;;;51.50;44.03;;;9.60;99.90;;;;;;5076499;28;20468;-64
2024/03/31 06:57:15;;;;;;;54.33;47.70;;;9.60;99.90;;;;;;5078328;28;20447;-66
2024/03/31 06:59:42;;;;;;;50.97;45.07;;;9.60;99.90;;;;;;5077472;28;20469;-64
2024/03/31 07:02:08;;;;;;;54.40;48.60;;;9.70;99.90;;;;;;5076411;28;20225;-64
2024/03/31 07:04:36;;;;;;;56.30;46.77;;;9.70;99.90;;;;;;5075759;28;20460;-64
2024/03/31 07:07:02;;;;;;;57.03;47.20;;;9.70;99.90;;;;;;5075332;28;20213;-64
2024/03/31 07:09:29;;;;;;;55.37;47.50;;;9.80;99.90;;;;;;5075370;28;20444;-64
2024/03/31 07:11:55;;;;;;;56.03;48.67;;;9.80;99.90;;;;;;5076186;28;20999;-65
2024/03/31 07:14:22;;;;;;;55.53;49.47;;;9.90;99.90;;;;;;5076861;28;20503;-63
2024/03/31 07:16:48;;;;;;;57.53;50.70;;;9.90;99.90;;;;;;5076305;28;20442;-64
2024/03/31 07:19:14;;;;;;;59.23;50.87;;;10.00;99.90;;;;;;5076385;28;20442;-64
2024/03/31 07:21:41;;;;;;;60.10;50.80;;;10.00;99.90;;;;;;5076713;28;20231;-64
2024/03/31 07:24:09;;;;;;;56.67;50.53;;;10.00;99.90;;;;;;5076583;28;20445;-65
2024/03/31 07:26:35;;;;;;;55.03;49.10;;;10.00;99.90;;;;;;5075786;28;20447;-64
2024/03/31 07:29:02;;;;;;;55.70;48.20;;;10.00;99.90;;;;;;5075489;28;20860;-64
2024/03/31 07:31:28;;;;;;;58.57;49.60;;;10.10;99.90;;;;;;5075126;28;20719;-64
2024/03/31 07:33:54;;;;;;;58.87;52.50;;;10.10;99.90;;;;;;5074868;28;20513;-64
2024/03/31 07:36:20;;;;;;;56.83;50.50;;;10.10;99.90;;;;;;5075630;28;20439;-64
2024/03/31 07:38:48;;;;;;;56.07;49.97;;;10.10;99.90;;;;;;5074833;28;20807;-63
2024/03/31 07:41:14;;;;;;;61.57;52.37;;;10.10;99.90;;;;;;5076276;28;20224;-63
2024/03/31 07:43:41;;;;;;;61.30;52.50;;;10.10;99.90;;;;;;5075261;28;20458;-63
2024/03/31 07:46:06;;;;;;;59.43;52.23;;;10.10;99.90;;;;;;5074609;28;20219;-63
2024/03/31 07:48:33;;;;;;;60.03;50.80;;;10.10;99.90;;;;;;5075870;28;20446;-65
2024/03/31 07:50:59;;;;;;;55.87;49.00;;;10.10;99.90;;;;;;5074417;28;20203;-64
2024/03/31 07:53:26;;;;;;;53.70;47.30;;;10.10;99.90;;;;;;5074440;28;20842;-64
2024/03/31 07:55:59;;;;;;;54.63;48.17;;;10.10;99.90;;;;;;5075349;28;20223;-64
2024/03/31 07:58:27;;;;;;;54.77;47.40;;;10.10;99.90;;;;;;5074777;28;20442;-64
2024/03/31 08:00:54;;;;;;;58.53;51.30;;;10.10;99.90;;;;;;5074086;28;20814;-64
2024/03/31 08:03:21;;;;;;;59.13;50.57;;;10.10;99.90;;;;;;5080911;28;20471;-64
2024/03/31 08:05:47;;;;;;;55.03;49.03;;;10.10;99.90;;;;;;5087576;28;20442;-64
2024/03/31 08:08:13;;;;;;;57.03;50.13;;;10.10;99.90;;;;;;5079845;28;20530;-65
2024/03/31 08:10:42;;;;;;;56.60;50.53;;;10.10;99.90;;;;;;5075808;28;20211;-64
2024/03/31 08:13:10;;;;;;;55.20;48.27;;;10.10;99.90;;;;;;5074783;28;20495;-65
2024/03/31 08:15:36;;;;;;;58.87;51.23;;;10.10;99.90;;;;;;5075229;28;20840;-64
2024/03/31 08:18:03;;;;;;;54.40;47.83;;;10.10;99.90;;;;;;5074753;28;20438;-63
2024/03/31 08:20:30;;;;;;;55.77;48.80;;;10.10;99.90;;;;;;5075384;28;20203;-63
2024/03/31 08:22:57;;;;;;;52.00;46.00;;;10.20;99.90;;;;;;5075060;28;20494;-65
2024/03/31 08:25:22;;;;;;;55.20;47.23;;;10.20;99.90;;;;;;5075143;28;20453;-63
2024/03/31 08:27:49;;;;;;;57.00;45.67;;;10.20;99.90;;;;;;5075135;28;20439;-64
2024/03/31 08:30:16;;;;;;;52.70;47.00;;;10.30;99.90;;;;;;5074889;28;20209;-62
2024/03/31 08:32:45;;;;;;;53.87;44.87;;;10.40;99.90;;;;;;5073542;28;20478;-63
2024/03/31 08:35:10;;;;;;;51.97;46.47;;;10.40;99.90;;;;;;5073795;28;20452;-64
2024/03/31 08:37:37;;;;;;;51.37;45.87;;;10.50;99.90;;;;;;5073789;28;20445;-63
2024/03/31 08:40:05;;;;;;;51.87;46.43;;;10.40;99.90;;;;;;5074919;28;20211;-63
2024/03/31 08:42:37;;;;;;;50.87;45.07;;;10.50;99.90;;;;;;5074228;28;20462;-64
2024/03/31 08:45:05;;;;;;;49.20;43.97;;;10.40;99.90;;;;;;5080655;28;20538;-64
2024/03/31 08:47:35;;;;;;;52.40;46.90;;;10.50;99.90;;;;;;5080853;28;20439;-64
2024/03/31 08:50:01;;;;;;;54.60;47.53;;;10.40;99.90;;;;;;5075730;28;20443;-64
2024/03/31 08:52:28;;;;;;;53.03;46.87;;;10.40;99.90;;;;;;5074184;28;20482;-63
2024/03/31 08:54:56;;;;;;;54.73;49.00;;;10.50;99.90;;;;;;5075699;28;20678;-63
2024/03/31 08:57:23;;;;;;;53.87;48.17;;;10.50;99.90;;;;;;5076563;28;20443;-63
2024/03/31 08:59:49;;;;;;;49.57;44.00;;;10.60;99.90;;;;;;5081253;28;20446;-65
2024/03/31 09:02:22;;;;;;;51.73;46.10;;;10.80;99.90;;;;;;5081411;28;20473;-64
2024/03/31 09:04:50;;;;;;;50.97;45.57;;;10.90;99.90;;;;;;5082978;28;20426;-64
2024/03/31 09:07:17;;;;;;;51.87;45.83;;;11.10;99.90;;;;;;5083287;28;20466;-64
2024/03/31 09:09:43;;;;;;;54.30;48.57;;;11.20;99.90;;;;;;5082285;28;20445;-63
2024/03/31 09:12:10;;;;;;;52.73;46.93;;;11.40;99.90;;;;;;5079769;28;20471;-64
2024/03/31 09:14:37;;;;;;;48.90;44.07;;;11.60;99.90;;;;;;5078294;28;20576;-64
2024/03/31 09:17:04;;;;;;;51.37;45.13;;;11.70;99.90;;;;;;5078663;28;20462;-63
2024/03/31 09:19:30;;;;;;;50.47;45.07;;;11.80;99.90;;;;;;5077562;28;20924;-64
2024/03/31 09:21:58;;;;;;;49.73;44.33;;;11.80;99.90;;;;;;5077618;28;20473;-63
2024/03/31 09:24:24;;;;;;;49.77;44.80;;;11.90;99.90;;;;;;5082232;28;20439;-63
2024/03/31 09:26:51;;;;;;;48.37;43.43;;;11.90;99.90;;;;;;5086374;28;20534;-64
2024/03/31 09:29:19;;;;;;;50.73;45.57;;;11.90;99.90;;;;;;5088105;28;21028;-62
2024/03/31 09:31:46;;;;;;;49.80;44.60;;;11.90;99.90;;;;;;5082919;28;20573;-64
2024/03/31 09:34:12;;;;;;;52.60;47.17;;;12.00;99.90;;;;;;5081383;28;20479;-64
2024/03/31 09:36:40;;;;;;;50.87;44.80;;;12.10;99.90;;;;;;5079020;28;20445;-63
2024/03/31 09:39:07;;;;;;;51.67;46.37;;;12.10;99.90;;;;;;5079347;28;20451;-64
2024/03/31 09:41:37;;;;;;;50.90;45.40;;;12.10;99.90;;;;;;5078178;28;20872;-64
2024/03/31 09:44:04;;;;;;;49.97;44.87;;;12.00;99.90;;;;;;5077754;28;20526;-64
2024/03/31 09:46:32;;;;;;;47.43;42.63;;;11.90;99.90;;;;;;5077167;28;20439;-65
2024/03/31 09:49:02;;;;;;;50.93;45.43;;;11.80;99.90;;;;;;5077833;28;20804;-63
2024/03/31 09:51:34;;;;;;;51.50;46.50;;;11.80;99.90;;;;;;5078877;28;20843;-64
2024/03/31 09:54:04;;;;;;;50.53;45.13;;;11.70;99.90;;;;;;5078355;28;20497;-64
2024/03/31 09:56:39;;;;;;;52.57;46.97;;;11.70;99.90;;;;;;5078033;28;21032;-63
2024/03/31 09:59:09;;;;;;;49.73;44.57;;;11.70;99.90;;;;;;5078140;28;20431;-64
2024/03/31 10:01:38;;;;;;;50.73;45.57;;;11.70;99.90;;;;;;5077452;28;20438;-64
2024/03/31 10:04:11;;;;;;;50.23;44.83;;;11.70;99.90;;;;;;5078217;28;20467;-64
2024/03/31 10:06:38;;;;;;;50.27;44.50;;;11.80;99.90;;;;;;5078066;28;20590;-65
2024/03/31 10:09:05;;;;;;;49.43;43.73;;;11.80;99.90;;;;;;5078463;28;20439;-65
2024/03/31 10:11:35;;;;;;;50.67;45.27;;;12.00;99.90;;;;;;5077406;28;20463;-65
2024/03/31 10:14:01;;;;;;;47.80;42.90;;;12.10;99.90;;;;;;5077632;28;20463;-65
2024/03/31 10:16:28;;;;;;;48.60;43.70;;;12.20;99.90;;;;;;5077777;28;20447;-65
2024/03/31 10:18:56;;;;;;;49.07;44.13;;;12.30;99.90;;;;;;5076735;28;20443;-64
2024/03/31 10:21:24;;;;;;;49.50;44.70;;;12.50;99.90;;;;;;5076276;28;20473;-64
2024/03/31 10:23:52;;;;;;;47.20;42.43;;;12.70;99.90;;;;;;5076720;28;20439;-65
2024/03/31 10:26:21;;;;;;;45.70;40.97;;;12.90;99.90;;;;;;5078223;28;20450;-64
2024/03/31 10:28:50;;;;;;;49.57;44.37;;;13.20;99.90;;;;;;5085552;28;20439;-64
2024/03/31 10:31:17;;;;;;;47.10;42.27;;;13.50;99.90;;;;;;5084145;28;20929;-65
2024/03/31 10:33:43;;;;;;;49.50;44.40;;;13.70;99.90;;;;;;5082995;28;20846;-65
2024/03/31 10:36:11;;;;;;;44.57;40.17;;;13.80;99.90;;;;;;5078836;28;20503;-64
2024/03/31 10:38:42;;;;;;;46.20;41.50;;;13.80;99.90;;;;;;5077101;28;20446;-64
2024/03/31 10:41:11;;;;;;;45.43;39.50;;;13.80;99.90;;;;;;5076674;28;20770;-64
2024/03/31 10:43:37;;;;;;;42.20;37.53;;;13.70;99.90;;;;;;5076465;28;20459;-65
2024/03/31 10:46:07;;;;;;;43.50;39.03;;;13.80;99.90;;;;;;5076476;28;20858;-64
2024/03/31 10:48:33;;;;;;;39.63;35.67;;;13.90;99.90;;;;;;5076096;28;20439;-63
2024/03/31 10:51:09;;;;;;;39.83;35.93;;;14.00;99.90;;;;;;5075830;28;20521;-64
2024/03/31 10:53:35;;;;;;;33.67;30.20;;;14.10;99.90;;;;;;5076035;28;20486;-63
2024/03/31 10:56:04;;;;;;;36.53;32.90;;;14.30;99.90;;;;;;5075859;28;20819;-64
2024/03/31 10:58:31;;;;;;;40.10;36.30;;;14.30;99.90;;;;;;5075798;28;20209;-64
2024/03/31 11:00:58;;;;;;;38.90;34.77;;;14.10;99.90;;;;;;5075526;28;20470;-64
2024/03/31 11:03:28;;;;;;;37.83;32.77;;;14.00;99.90;;;;;;5075336;28;20832;-64
2024/03/31 11:05:56;;;;;;;35.57;31.83;;;14.00;99.90;;;;;;5075470;28;20952;-64
2024/03/31 11:08:22;;;;;;;33.83;30.30;;;14.10;99.90;;;;;;5076475;28;20613;-63
2024/03/31 11:10:49;;;;;;;29.83;26.73;;;14.10;99.90;;;;;;5076233;28;20470;-64
2024/03/31 11:13:15;;;;;;;28.03;25.20;;;14.20;99.90;;;;;;5076714;28;20501;-65
2024/03/31 11:15:42;;;;;;;29.03;25.87;;;14.30;99.90;;;;;;5076325;28;20573;-63
2024/03/31 11:18:09;;;;;;;27.07;23.47;;;14.30;99.90;;;;;;5076652;28;20438;-63
2024/03/31 11:20:44;;;;;;;27.07;24.20;;;14.30;99.90;;;;;;5075877;28;20478;-63
2024/03/31 11:23:12;;;;;;;26.20;23.40;;;14.40;99.90;;;;;;5075479;28;20463;-64
2024/03/31 11:25:40;;;;;;;24.07;21.47;;;14.60;99.90;;;;;;5075028;28;21009;-64
2024/03/31 11:28:07;;;;;;;24.40;21.90;;;14.70;99.90;;;;;;5076290;28;20461;-64
2024/03/31 11:30:34;;;;;;;24.20;19.73;;;15.00;99.90;;;;;;5075308;28;20439;-65
2024/03/31 11:33:03;;;;;;;21.30;19.00;;;15.00;99.90;;;;;;5074489;28;20483;-63
2024/03/31 11:35:30;;;;;;;19.77;17.63;;;15.10;99.90;;;;;;5074924;28;20443;-64
2024/03/31 11:38:10;;;;;;;23.80;17.83;;;15.30;99.90;;;;;;5074509;28;20530;-64
2024/03/31 11:40:37;;;;;;;17.03;15.17;;;15.30;99.90;;;;;;5075074;28;20549;-64
2024/03/31 11:43:04;;;;;;;15.60;13.90;;;15.30;99.90;;;;;;5075219;28;20554;-64
2024/03/31 11:45:31;;;;;;;18.70;15.40;;;15.30;99.90;;;;;;5075058;28;20471;-64
2024/03/31 11:47:57;;;;;;;18.23;16.33;;;15.50;99.90;;;;;;5074996;28;20508;-63
2024/03/31 11:50:24;;;;;;;19.87;17.87;;;15.60;99.90;;;;;;5074116;28;20948;-64
2024/03/31 11:52:50;;;;;;;16.63;14.77;;;15.70;99.90;;;;;;5074286;28;20225;-64
2024/03/31 11:55:18;;;;;;;16.17;13.93;;;15.80;99.90;;;;;;5074527;28;20526;-64
2024/03/31 11:57:44;;;;;;;18.70;15.97;;;15.80;99.90;;;;;;5073923;28;20203;-64
2024/03/31 12:00:14;;;;;;;17.80;14.93;;;15.70;99.90;;;;;;5074825;28;20439;-65
2024/03/31 12:02:40;;;;;;;15.20;12.37;;;15.60;99.90;;;;;;5075013;28;20220;-64
2024/03/31 12:05:16;;;;;;;17.50;14.33;;;15.70;99.90;;;;;;5075295;28;20453;-64
2024/03/31 12:07:42;;;;;;;22.00;15.23;;;15.70;99.90;;;;;;5075028;28;20193;-64
2024/03/31 12:10:10;;;;;;;19.50;16.13;;;15.70;99.90;;;;;;5074990;28;20447;-65
2024/03/31 12:12:37;;;;;;;18.03;16.23;;;15.90;99.90;;;;;;5075020;28;20471;-65
2024/03/31 12:15:05;;;;;;;16.87;14.77;;;16.00;99.90;;;;;;5081824;28;20478;-64
2024/03/31 12:17:31;;;;;;;18.00;16.10;;;16.10;98.90;;;;;;5083202;28;20453;-64
2024/03/31 12:19:57;;;;;;;19.10;14.77;;;16.10;98.40;;;;;;5086094;28;20474;-63
2024/03/31 12:22:24;;;;;;;15.13;13.00;;;16.20;98.20;;;;;;5084247;28;20598;-65
2024/03/31 12:24:52;;;;;;;14.07;12.67;;;16.50;97.80;;;;;;5080982;28;20439;-64
2024/03/31 12:27:17;;;;;;;13.90;11.33;;;16.60;96.70;;;;;;5080561;28;20443;-63
2024/03/31 12:29:47;;;;;;;15.33;12.60;;;16.50;96.00;;;;;;5078409;28;20893;-63
2024/03/31 12:32:13;;;;;;;15.27;11.43;;;16.50;95.70;;;;;;5079563;28;20469;-64